sensor_id;sensor_type;location;lat;lon;timestamp;pressure;altitude;pressure_sealevel;temperature;humidity
18795;BME280;29610;49.022;12.114;2023-04-29T00:01:11;97385.84;;;12.74;100.00
18795;BME280;29610;49.022;12.114;2023-04-29T00:04:00;97376.28;;;12.80;100.00
18795;BME280;29610;49.022;12.114;2023-04-29T00:06:50;97381.06;;;12.83;100.00
18795;BME280;29610;49.022;12.114;2023-04-29T00:09:40;97385.19;;;12.65;100.00
18795;BME280;29610;49.022;12.114;2023-04-29T00:12:29;97379.59;;;12.73;100.00
18795;BME280;29610;49.022;12.114;2023-04-29T00:15:19;97376.19;;;12.76;100.00
18795;BME280;29610;49.022;12.114;2023-04-29T00:18:08;97369.38;;;12.82;100.00
18795;BME280;29610;49.022;12.114;2023-04-29T00:20:57;97372.44;;;12.81;100.00
18795;BME280;29610;49.022;12.114;2023-04-29T00:23:46;97366.97;;;12.81;100.00
18795;BME280;29610;49.022;12.114;2023-04-29T00:26:36;97361.66;;;12.72;100.00
18795;BME280;29610;49.022;12.114;2023-04-29T00:29:25;97355.38;;;12.72;100.00
18795;BME280;29610;49.022;12.114;2023-04-29T00:32:14;97349.03;;;12.68;100.00
18795;BME280;29610;49.022;12.114;2023-04-29T00:35:04;97358.69;;;12.65;100.00
18795;BME280;29610;49.022;12.114;2023-04-29T00:37:53;97359.94;;;12.68;100.00
18795;BME280;29610;49.022;12.114;2023-04-29T00:40:42;97358.59;;;12.62;100.00
18795;BME280;29610;49.022;12.114;2023-04-29T00:43:33;97354.16;;;12.69;100.00
18795;BME280;29610;49.022;12.114;2023-04-29T00:46:22;97360.06;;;12.71;100.00
18795;BME280;29610;49.022;12.114;2023-04-29T00:49:13;97359.59;;;12.69;100.00
18795;BME280;29610;49.022;12.114;2023-04-29T00:52:02;97361.75;;;12.64;100.00
18795;BME280;29610;49.022;12.114;2023-04-29T00:54:51;97349.75;;;12.65;100.00
18795;BME280;29610;49.022;12.114;2023-04-29T00:57:41;97353.25;;;12.53;100.00
18795;BME280;29610;49.022;12.114;2023-04-29T01:00:32;97350.19;;;12.55;100.00
18795;BME280;29610;49.022;12.114;2023-04-29T01:03:21;97352.78;;;12.51;100.00
18795;BME280;29610;49.022;12.114;2023-04-29T01:06:24;97355.63;;;12.55;100.00
18795;BME280;29610;49.022;12.114;2023-04-29T01:09:28;97361.22;;;12.58;100.00
18795;BME280;29610;49.022;12.114;2023-04-29T01:12:32;97363.72;;;12.63;100.00
18795;BME280;29610;49.022;12.114;2023-04-29T01:15:27;97370.97;;;12.71;100.00
18795;BME280;29610;49.022;12.114;2023-04-29T01:18:26;97359.59;;;12.69;100.00
18795;BME280;29610;49.022;12.114;2023-04-29T01:21:17;97351.44;;;12.69;100.00
18795;BME280;29610;49.022;12.114;2023-04-29T01:24:08;97349.59;;;12.73;100.00
18795;BME280;29610;49.022;12.114;2023-04-29T01:27:09;97345.41;;;12.76;100.00
18795;BME280;29610;49.022;12.114;2023-04-29T01:30:16;97355.50;;;12.75;100.00
18795;BME280;29610;49.022;12.114;2023-04-29T01:33:16;97360.97;;;12.75;100.00
18795;BME280;29610;49.022;12.114;2023-04-29T01:36:17;97353.69;;;12.79;100.00
18795;BME280;29610;49.022;12.114;2023-04-29T01:39:20;97358.13;;;12.84;100.00
18795;BME280;29610;49.022;12.114;2023-04-29T01:42:35;97351.63;;;12.88;100.00
18795;BME280;29610;49.022;12.114;2023-04-29T01:45:33;97352.78;;;12.87;100.00
18795;BME280;29610;49.022;12.114;2023-04-29T01:48:28;97352.31;;;12.85;100.00
18795;BME280;29610;49.022;12.114;2023-04-29T01:51:17;97360.50;;;12.85;100.00
18795;BME280;29610;49.022;12.114;2023-04-29T01:54:06;97346.28;;;12.92;100.00
18795;BME280;29610;49.022;12.114;2023-04-29T01:56:56;97338.34;;;12.87;100.00
18795;BME280;29610;49.022;12.114;2023-04-29T01:59:50;97347.22;;;12.84;100.00
18795;BME280;29610;49.022;12.114;2023-04-29T02:02:58;97354.94;;;12.82;100.00
18795;BME280;29610;49.022;12.114;2023-04-29T02:05:56;97350.81;;;12.88;100.00
18795;BME280;29610;49.022;12.114;2023-04-29T02:08:45;97357.31;;;12.83;100.00
18795;BME280;29610;49.022;12.114;2023-04-29T02:11:36;97344.03;;;12.82;100.00
18795;BME280;29610;49.022;12.114;2023-04-29T02:14:27;97340.72;;;12.88;100.00
18795;BME280;29610;49.022;12.114;2023-04-29T02:17:17;97352.78;;;12.87;100.00
18795;BME280;29610;49.022;12.114;2023-04-29T02:20:07;97369.59;;;12.65;100.00
18795;BME280;29610;49.022;12.114;2023-04-29T02:22:57;97378.91;;;12.64;100.00
18795;BME280;29610;49.022;12.114;2023-04-29T02:25:46;97372.56;;;12.84;100.00
18795;BME280;29610;49.022;12.114;2023-04-29T02:28:35;97366.28;;;12.84;100.00
18795;BME280;29610;49.022;12.114;2023-04-29T02:31:26;97346.88;;;12.85;100.00
18795;BME280;29610;49.022;12.114;2023-04-29T02:34:15;97360.38;;;12.82;100.00
18795;BME280;29610;49.022;12.114;2023-04-29T02:37:04;97365.50;;;12.83;100.00
18795;BME280;29610;49.022;12.114;2023-04-29T02:39:53;97353.19;;;12.89;100.00
18795;BME280;29610;49.022;12.114;2023-04-29T02:42:42;97350.00;;;12.99;100.00
18795;BME280;29610;49.022;12.114;2023-04-29T02:45:31;97351.03;;;12.95;100.00
18795;BME280;29610;49.022;12.114;2023-04-29T02:48:21;97352.31;;;12.85;100.00
18795;BME280;29610;49.022;12.114;2023-04-29T02:51:10;97343.91;;;12.90;100.00
18795;BME280;29610;49.022;12.114;2023-04-29T02:53:59;97347.66;;;12.86;100.00
18795;BME280;29610;49.022;12.114;2023-04-29T02:56:51;97350.03;;;12.87;100.00
18795;BME280;29610;49.022;12.114;2023-04-29T02:59:40;97353.13;;;12.86;100.00
18795;BME280;29610;49.022;12.114;2023-04-29T03:02:29;97349.47;;;12.94;100.00
18795;BME280;29610;49.022;12.114;2023-04-29T03:05:20;97343.66;;;12.95;100.00
18795;BME280;29610;49.022;12.114;2023-04-29T03:08:09;97334.03;;;12.86;100.00
18795;BME280;29610;49.022;12.114;2023-04-29T03:10:58;97337.69;;;12.78;100.00
18795;BME280;29610;49.022;12.114;2023-04-29T03:13:47;97346.53;;;12.75;100.00
18795;BME280;29610;49.022;12.114;2023-04-29T03:16:36;97344.28;;;12.65;100.00
18795;BME280;29610;49.022;12.114;2023-04-29T03:19:25;97338.47;;;12.54;100.00
18795;BME280;29610;49.022;12.114;2023-04-29T03:22:15;97343.03;;;12.50;100.00
18795;BME280;29610;49.022;12.114;2023-04-29T03:25:06;97344.97;;;12.50;100.00
18795;BME280;29610;49.022;12.114;2023-04-29T03:27:58;97356.78;;;12.54;100.00
18795;BME280;29610;49.022;12.114;2023-04-29T03:30:47;97349.03;;;12.68;100.00
18795;BME280;29610;49.022;12.114;2023-04-29T03:33:36;97346.28;;;12.80;100.00
18795;BME280;29610;49.022;12.114;2023-04-29T03:36:25;97350.28;;;12.82;100.00
18795;BME280;29610;49.022;12.114;2023-04-29T03:39:25;97343.09;;;12.90;100.00
18795;BME280;29610;49.022;12.114;2023-04-29T03:42:14;97339.91;;;12.88;100.00
18795;BME280;29610;49.022;12.114;2023-04-29T03:45:05;97343.69;;;12.83;100.00
18795;BME280;29610;49.022;12.114;2023-04-29T03:47:54;97340.81;;;12.92;100.00
18795;BME280;29610;49.022;12.114;2023-04-29T03:50:43;97346.50;;;12.87;100.00
18795;BME280;29610;49.022;12.114;2023-04-29T03:53:32;97347.63;;;12.98;100.00
18795;BME280;29610;49.022;12.114;2023-04-29T03:56:24;97345.69;;;12.98;100.00
18795;BME280;29610;49.022;12.114;2023-04-29T03:59:13;97348.44;;;12.98;100.00
18795;BME280;29610;49.022;12.114;2023-04-29T04:02:02;97357.88;;;13.01;100.00
18795;BME280;29610;49.022;12.114;2023-04-29T04:04:51;97355.94;;;13.01;100.00
18795;BME280;29610;49.022;12.114;2023-04-29T04:07:41;97354.22;;;13.09;100.00
18795;BME280;29610;49.022;12.114;2023-04-29T04:10:51;97356.50;;;13.07;100.00
18795;BME280;29610;49.022;12.114;2023-04-29T04:13:54;97358.53;;;13.10;100.00
18795;BME280;29610;49.022;12.114;2023-04-29T04:16:44;97355.47;;;13.11;100.00
18795;BME280;29610;49.022;12.114;2023-04-29T04:19:33;97353.69;;;13.03;100.00
18795;BME280;29610;49.022;12.114;2023-04-29T04:22:22;97372.97;;;12.86;100.00
18795;BME280;29610;49.022;12.114;2023-04-29T04:25:28;97375.50;;;12.79;100.00
18795;BME280;29610;49.022;12.114;2023-04-29T04:28:27;97372.66;;;12.76;100.00
18795;BME280;29610;49.022;12.114;2023-04-29T04:31:22;97369.13;;;12.75;100.00
18795;BME280;29610;49.022;12.114;2023-04-29T04:34:12;97367.09;;;12.84;100.00
18795;BME280;29610;49.022;12.114;2023-04-29T04:37:02;97369.13;;;12.87;100.00
18795;BME280;29610;49.022;12.114;2023-04-29T04:39:52;97361.97;;;12.83;100.00
18795;BME280;29610;49.022;12.114;2023-04-29T04:42:41;97357.66;;;12.82;100.00
18795;BME280;29610;49.022;12.114;2023-04-29T04:45:34;97359.03;;;12.76;100.00
18795;BME280;29610;49.022;12.114;2023-04-29T04:48:25;97361.75;;;12.76;100.00
18795;BME280;29610;49.022;12.114;2023-04-29T04:51:14;97364.81;;;12.62;100.00
18795;BME280;29610;49.022;12.114;2023-04-29T04:54:03;97367.91;;;12.61;100.00
18795;BME280;29610;49.022;12.114;2023-04-29T04:56:52;97367.09;;;12.48;100.00
18795;BME280;29610;49.022;12.114;2023-04-29T04:59:41;97371.88;;;12.39;100.00
18795;BME280;29610;49.022;12.114;2023-04-29T05:02:35;97369.72;;;12.33;100.00
18795;BME280;29610;49.022;12.114;2023-04-29T05:05:26;97380.50;;;12.29;100.00
18795;BME280;29610;49.022;12.114;2023-04-29T05:08:15;97378.91;;;12.40;100.00
18795;BME280;29610;49.022;12.114;2023-04-29T05:11:15;97382.53;;;12.80;100.00
18795;BME280;29610;49.022;12.114;2023-04-29T05:14:10;97377.38;;;13.27;100.00
18795;BME280;29610;49.022;12.114;2023-04-29T05:16:59;97384.91;;;13.73;100.00
18795;BME280;29610;49.022;12.114;2023-04-29T05:19:48;97383.94;;;14.09;100.00
18795;BME280;29610;49.022;12.114;2023-04-29T05:22:39;97386.72;;;14.24;100.00
18795;BME280;29610;49.022;12.114;2023-04-29T05:25:28;97383.66;;;14.14;100.00
18795;BME280;29610;49.022;12.114;2023-04-29T05:28:18;97389.13;;;14.14;100.00
18795;BME280;29610;49.022;12.114;2023-04-29T05:31:06;97389.31;;;14.21;100.00
18795;BME280;29610;49.022;12.114;2023-04-29T05:33:56;97395.00;;;14.43;100.00
18795;BME280;29610;49.022;12.114;2023-04-29T05:36:45;97399.09;;;14.84;100.00
18795;BME280;29610;49.022;12.114;2023-04-29T05:39:35;97395.31;;;14.89;100.00
18795;BME280;29610;49.022;12.114;2023-04-29T05:42:31;97400.78;;;14.89;100.00
18795;BME280;29610;49.022;12.114;2023-04-29T05:45:21;97402.63;;;14.85;100.00
18795;BME280;29610;49.022;12.114;2023-04-29T05:48:10;97411.72;;;14.73;100.00
18795;BME280;29610;49.022;12.114;2023-04-29T05:50:59;97410.59;;;14.74;100.00
18795;BME280;29610;49.022;12.114;2023-04-29T05:53:48;97417.16;;;15.04;100.00
18795;BME280;29610;49.022;12.114;2023-04-29T05:56:39;97417.66;;;15.25;100.00
18795;BME280;29610;49.022;12.114;2023-04-29T05:59:30;97425.84;;;15.41;100.00
18795;BME280;29610;49.022;12.114;2023-04-29T06:02:24;97420.22;;;15.53;100.00
18795;BME280;29610;49.022;12.114;2023-04-29T06:05:13;97429.81;;;15.62;100.00
18795;BME280;29610;49.022;12.114;2023-04-29T06:08:28;97433.72;;;15.80;100.00
18795;BME280;29610;49.022;12.114;2023-04-29T06:11:36;97438.75;;;15.97;100.00
18795;BME280;29610;49.022;12.114;2023-04-29T06:14:26;97436.94;;;16.05;100.00
18795;BME280;29610;49.022;12.114;2023-04-29T06:17:15;97441.00;;;15.92;100.00
18795;BME280;29610;49.022;12.114;2023-04-29T06:20:06;97435.44;;;15.88;100.00
18795;BME280;29610;49.022;12.114;2023-04-29T06:22:55;97439.53;;;15.98;100.00
18795;BME280;29610;49.022;12.114;2023-04-29T06:25:44;97442.66;;;15.96;100.00
18795;BME280;29610;49.022;12.114;2023-04-29T06:28:35;97445.88;;;16.02;100.00
18795;BME280;29610;49.022;12.114;2023-04-29T06:31:25;97444.94;;;15.94;100.00
18795;BME280;29610;49.022;12.114;2023-04-29T06:34:19;97450.63;;;16.24;100.00
18795;BME280;29610;49.022;12.114;2023-04-29T06:37:27;97457.09;;;16.35;100.00
18795;BME280;29610;49.022;12.114;2023-04-29T06:40:35;97446.16;;;16.39;100.00
18795;BME280;29610;49.022;12.114;2023-04-29T06:43:38;97451.50;;;16.96;100.00
18795;BME280;29610;49.022;12.114;2023-04-29T06:46:57;97448.91;;;17.59;100.00
18795;BME280;29610;49.022;12.114;2023-04-29T06:49:59;97444.09;;;17.78;100.00
18795;BME280;29610;49.022;12.114;2023-04-29T06:52:48;97449.28;;;17.57;100.00
18795;BME280;29610;49.022;12.114;2023-04-29T06:55:37;97445.75;;;17.30;100.00
18795;BME280;29610;49.022;12.114;2023-04-29T06:58:26;97445.69;;;17.27;100.00
18795;BME280;29610;49.022;12.114;2023-04-29T07:01:15;97447.63;;;17.23;100.00
18795;BME280;29610;49.022;12.114;2023-04-29T07:04:05;97446.31;;;17.43;100.00
18795;BME280;29610;49.022;12.114;2023-04-29T07:06:55;97459.75;;;17.74;100.00
18795;BME280;29610;49.022;12.114;2023-04-29T07:09:46;97455.38;;;18.03;100.00
18795;BME280;29610;49.022;12.114;2023-04-29T07:12:40;97456.38;;;18.54;100.00
18795;BME280;29610;49.022;12.114;2023-04-29T07:15:32;97455.78;;;19.25;100.00
18795;BME280;29610;49.022;12.114;2023-04-29T07:18:25;97453.84;;;19.94;100.00
18795;BME280;29610;49.022;12.114;2023-04-29T07:21:15;97457.13;;;20.24;100.00
18795;BME280;29610;49.022;12.114;2023-04-29T07:24:05;97446.06;;;20.17;100.00
18795;BME280;29610;49.022;12.114;2023-04-29T07:26:54;97451.91;;;20.01;100.00
18795;BME280;29610;49.022;12.114;2023-04-29T07:29:43;97462.03;;;19.76;100.00
18795;BME280;29610;49.022;12.114;2023-04-29T07:32:33;97463.59;;;19.77;100.00
18795;BME280;29610;49.022;12.114;2023-04-29T07:35:24;97462.28;;;19.54;100.00
18795;BME280;29610;49.022;12.114;2023-04-29T07:38:14;97466.91;;;19.32;100.00
18795;BME280;29610;49.022;12.114;2023-04-29T07:41:04;97466.22;;;18.99;100.00
18795;BME280;29610;49.022;12.114;2023-04-29T07:43:53;97465.91;;;18.63;100.00
18795;BME280;29610;49.022;12.114;2023-04-29T07:46:42;97466.50;;;18.46;100.00
18795;BME280;29610;49.022;12.114;2023-04-29T07:49:32;97467.06;;;18.62;100.00
18795;BME280;29610;49.022;12.114;2023-04-29T07:52:22;97468.97;;;19.02;100.00
18795;BME280;29610;49.022;12.114;2023-04-29T07:55:12;97469.34;;;19.48;100.00
18795;BME280;29610;49.022;12.114;2023-04-29T07:58:02;97474.41;;;19.39;100.00
18795;BME280;29610;49.022;12.114;2023-04-29T08:00:51;97475.88;;;19.26;100.00
18795;BME280;29610;49.022;12.114;2023-04-29T08:03:40;97483.56;;;17.67;100.00
18795;BME280;29610;49.022;12.114;2023-04-29T08:06:31;97480.59;;;17.49;100.00
18795;BME280;29610;49.022;12.114;2023-04-29T08:09:20;97483.03;;;17.31;100.00
18795;BME280;29610;49.022;12.114;2023-04-29T08:12:11;97484.72;;;17.39;100.00
18795;BME280;29610;49.022;12.114;2023-04-29T08:15:00;97468.69;;;17.68;100.00
18795;BME280;29610;49.022;12.114;2023-04-29T08:17:51;97484.63;;;18.18;100.00
18795;BME280;29610;49.022;12.114;2023-04-29T08:20:41;97484.28;;;18.23;100.00
18795;BME280;29610;49.022;12.114;2023-04-29T08:23:30;97480.59;;;18.08;100.00
18795;BME280;29610;49.022;12.114;2023-04-29T08:26:19;97482.50;;;17.75;100.00
18795;BME280;29610;49.022;12.114;2023-04-29T08:29:13;97477.84;;;18.08;100.00
18795;BME280;29610;49.022;12.114;2023-04-29T08:32:03;97484.78;;;18.65;100.00
18795;BME280;29610;49.022;12.114;2023-04-29T08:34:52;97486.63;;;19.41;100.00
18795;BME280;29610;49.022;12.114;2023-04-29T08:37:42;97475.00;;;19.69;100.00
18795;BME280;29610;49.022;12.114;2023-04-29T08:40:34;97470.13;;;20.16;100.00
18795;BME280;29610;49.022;12.114;2023-04-29T08:43:24;97466.69;;;20.55;100.00
18795;BME280;29610;49.022;12.114;2023-04-29T08:46:16;97467.53;;;21.32;100.00
18795;BME280;29610;49.022;12.114;2023-04-29T08:49:07;97467.03;;;21.94;100.00
18795;BME280;29610;49.022;12.114;2023-04-29T08:51:57;97479.25;;;22.00;100.00
18795;BME280;29610;49.022;12.114;2023-04-29T08:54:46;97480.13;;;20.88;100.00
18795;BME280;29610;49.022;12.114;2023-04-29T08:57:36;97472.63;;;20.81;100.00
18795;BME280;29610;49.022;12.114;2023-04-29T09:00:27;97477.66;;;20.33;100.00
18795;BME280;29610;49.022;12.114;2023-04-29T09:03:26;97475.84;;;21.04;100.00
18795;BME280;29610;49.022;12.114;2023-04-29T09:06:18;97480.50;;;20.58;100.00
18795;BME280;29610;49.022;12.114;2023-04-29T09:09:09;97475.00;;;20.86;100.00
18795;BME280;29610;49.022;12.114;2023-04-29T09:12:00;97477.72;;;20.55;100.00
18795;BME280;29610;49.022;12.114;2023-04-29T09:14:50;97480.19;;;19.84;100.00
18795;BME280;29610;49.022;12.114;2023-04-29T09:17:41;97486.69;;;19.52;100.00
18795;BME280;29610;49.022;12.114;2023-04-29T09:20:32;97480.66;;;19.32;100.00
18795;BME280;29610;49.022;12.114;2023-04-29T09:23:36;97479.75;;;19.79;100.00
18795;BME280;29610;49.022;12.114;2023-04-29T09:26:26;97482.81;;;20.49;100.00
18795;BME280;29610;49.022;12.114;2023-04-29T09:29:15;97474.16;;;20.54;100.00
18795;BME280;29610;49.022;12.114;2023-04-29T09:32:20;97478.97;;;21.06;100.00
18795;BME280;29610;49.022;12.114;2023-04-29T09:35:22;97473.06;;;21.18;100.00
18795;BME280;29610;49.022;12.114;2023-04-29T09:38:15;97482.16;;;21.08;100.00
18795;BME280;29610;49.022;12.114;2023-04-29T09:41:09;97481.69;;;20.75;100.00
18795;BME280;29610;49.022;12.114;2023-04-29T09:44:03;97476.94;;;20.68;100.00
18795;BME280;29610;49.022;12.114;2023-04-29T09:46:58;97484.47;;;20.82;100.00
18795;BME280;29610;49.022;12.114;2023-04-29T09:49:50;97483.34;;;21.25;100.00
18795;BME280;29610;49.022;12.114;2023-04-29T09:52:39;97488.03;;;20.89;100.00
18795;BME280;29610;49.022;12.114;2023-04-29T09:55:30;97488.59;;;20.12;100.00
18795;BME280;29610;49.022;12.114;2023-04-29T09:58:27;97482.38;;;20.26;100.00
18795;BME280;29610;49.022;12.114;2023-04-29T10:01:19;97491.44;;;19.55;100.00
18795;BME280;29610;49.022;12.114;2023-04-29T10:04:11;97502.13;;;19.13;100.00
18795;BME280;29610;49.022;12.114;2023-04-29T10:07:01;97494.94;;;19.01;100.00
18795;BME280;29610;49.022;12.114;2023-04-29T10:09:51;97498.81;;;18.93;100.00
18795;BME280;29610;49.022;12.114;2023-04-29T10:12:44;97499.94;;;18.88;100.00
18795;BME280;29610;49.022;12.114;2023-04-29T10:15:39;97498.75;;;18.89;100.00
18795;BME280;29610;49.022;12.114;2023-04-29T10:18:35;97500.75;;;18.92;100.00
18795;BME280;29610;49.022;12.114;2023-04-29T10:21:28;97500.84;;;18.59;100.00
18795;BME280;29610;49.022;12.114;2023-04-29T10:24:18;97512.06;;;18.11;100.00
18795;BME280;29610;49.022;12.114;2023-04-29T10:27:11;97501.84;;;18.11;100.00
18795;BME280;29610;49.022;12.114;2023-04-29T10:30:02;97516.84;;;18.17;100.00
18795;BME280;29610;49.022;12.114;2023-04-29T10:32:53;97511.91;;;18.00;100.00
18795;BME280;29610;49.022;12.114;2023-04-29T10:35:47;97517.22;;;17.86;100.00
18795;BME280;29610;49.022;12.114;2023-04-29T10:38:42;97513.91;;;18.03;100.00
18795;BME280;29610;49.022;12.114;2023-04-29T10:41:38;97529.09;;;18.23;100.00
18795;BME280;29610;49.022;12.114;2023-04-29T10:48:12;97516.25;;;19.08;100.00
18795;BME280;29610;49.022;12.114;2023-04-29T10:51:01;97515.41;;;19.47;100.00
18795;BME280;29610;49.022;12.114;2023-04-29T10:54:07;97514.34;;;19.15;100.00
18795;BME280;29610;49.022;12.114;2023-04-29T10:56:57;97511.72;;;18.85;100.00
18795;BME280;29610;49.022;12.114;2023-04-29T10:59:46;97511.91;;;18.33;100.00
18795;BME280;29610;49.022;12.114;2023-04-29T11:02:36;97512.38;;;18.72;100.00
18795;BME280;29610;49.022;12.114;2023-04-29T11:05:32;97508.81;;;19.15;100.00
18795;BME280;29610;49.022;12.114;2023-04-29T11:08:23;97509.63;;;19.66;100.00
18795;BME280;29610;49.022;12.114;2023-04-29T11:11:13;97506.16;;;19.76;100.00
18795;BME280;29610;49.022;12.114;2023-04-29T11:14:08;97506.88;;;20.52;100.00
18795;BME280;29610;49.022;12.114;2023-04-29T11:17:02;97499.47;;;21.68;100.00
18795;BME280;29610;49.022;12.114;2023-04-29T11:19:53;97501.09;;;21.31;100.00
18795;BME280;29610;49.022;12.114;2023-04-29T11:22:50;97487.13;;;22.12;100.00
18795;BME280;29610;49.022;12.114;2023-04-29T11:25:40;97488.72;;;22.09;100.00
18795;BME280;29610;49.022;12.114;2023-04-29T11:28:30;97497.16;;;21.04;100.00
18795;BME280;29610;49.022;12.114;2023-04-29T11:31:19;97503.38;;;20.55;100.00
18795;BME280;29610;49.022;12.114;2023-04-29T11:34:10;97503.13;;;20.06;100.00
18795;BME280;29610;49.022;12.114;2023-04-29T11:36:59;97500.19;;;19.67;100.00
18795;BME280;29610;49.022;12.114;2023-04-29T11:39:50;97503.91;;;19.35;100.00
18795;BME280;29610;49.022;12.114;2023-04-29T11:42:44;97503.06;;;19.31;100.00
18795;BME280;29610;49.022;12.114;2023-04-29T11:45:34;97512.25;;;19.45;100.00
18795;BME280;29610;49.022;12.114;2023-04-29T11:48:25;97512.75;;;19.58;100.00
18795;BME280;29610;49.022;12.114;2023-04-29T11:51:17;97505.47;;;19.97;100.00
18795;BME280;29610;49.022;12.114;2023-04-29T11:54:07;97511.75;;;20.97;100.00
18795;BME280;29610;49.022;12.114;2023-04-29T11:56:58;97509.31;;;20.78;100.00
18795;BME280;29610;49.022;12.114;2023-04-29T11:59:51;97512.56;;;19.94;100.00
18795;BME280;29610;49.022;12.114;2023-04-29T12:02:44;97520.31;;;19.21;100.00
18795;BME280;29610;49.022;12.114;2023-04-29T12:05:34;97534.06;;;18.77;100.00
18795;BME280;29610;49.022;12.114;2023-04-29T12:08:26;97526.09;;;18.68;100.00
18795;BME280;29610;49.022;12.114;2023-04-29T12:11:16;97530.59;;;18.47;100.00
18795;BME280;29610;49.022;12.114;2023-04-29T12:14:06;97538.94;;;18.57;100.00
18795;BME280;29610;49.022;12.114;2023-04-29T12:16:55;97539.06;;;18.35;100.00
18795;BME280;29610;49.022;12.114;2023-04-29T12:19:44;97550.72;;;17.95;100.00
18795;BME280;29610;49.022;12.114;2023-04-29T12:22:35;97548.22;;;17.57;100.00
18795;BME280;29610;49.022;12.114;2023-04-29T12:25:26;97541.53;;;17.32;100.00
18795;BME280;29610;49.022;12.114;2023-04-29T12:28:16;97542.31;;;17.55;100.00
18795;BME280;29610;49.022;12.114;2023-04-29T12:31:09;97547.03;;;17.84;100.00
18795;BME280;29610;49.022;12.114;2023-04-29T12:33:58;97546.53;;;17.75;100.00
18795;BME280;29610;49.022;12.114;2023-04-29T12:36:49;97544.72;;;17.86;100.00
18795;BME280;29610;49.022;12.114;2023-04-29T12:39:38;97544.16;;;17.74;100.00
18795;BME280;29610;49.022;12.114;2023-04-29T12:42:31;97546.75;;;18.22;100.00
18795;BME280;29610;49.022;12.114;2023-04-29T12:45:30;97542.00;;;18.49;100.00
18795;BME280;29610;49.022;12.114;2023-04-29T12:48:20;97543.69;;;18.27;100.00
18795;BME280;29610;49.022;12.114;2023-04-29T12:51:16;97539.50;;;18.73;100.00
18795;BME280;29610;49.022;12.114;2023-04-29T12:54:05;97541.13;;;19.15;100.00
18795;BME280;29610;49.022;12.114;2023-04-29T12:56:55;97531.66;;;19.63;100.00
18795;BME280;29610;49.022;12.114;2023-04-29T12:59:44;97535.22;;;20.35;100.00
18795;BME280;29610;49.022;12.114;2023-04-29T13:02:33;97529.28;;;20.33;100.00
18795;BME280;29610;49.022;12.114;2023-04-29T13:05:24;97530.81;;;20.16;100.00
18795;BME280;29610;49.022;12.114;2023-04-29T13:08:13;97530.53;;;20.46;100.00
18795;BME280;29610;49.022;12.114;2023-04-29T13:11:02;97526.69;;;20.89;100.00
18795;BME280;29610;49.022;12.114;2023-04-29T13:13:51;97517.69;;;21.13;100.00
18795;BME280;29610;49.022;12.114;2023-04-29T13:16:40;97524.28;;;20.67;100.00
18795;BME280;29610;49.022;12.114;2023-04-29T13:19:29;97527.03;;;20.60;100.00
18795;BME280;29610;49.022;12.114;2023-04-29T13:22:39;97525.81;;;20.47;100.00
18795;BME280;29610;49.022;12.114;2023-04-29T13:25:28;97526.31;;;20.84;100.00
18795;BME280;29610;49.022;12.114;2023-04-29T13:28:17;97527.41;;;20.51;100.00
18795;BME280;29610;49.022;12.114;2023-04-29T13:31:06;97525.41;;;19.69;100.00
18795;BME280;29610;49.022;12.114;2023-04-29T13:33:55;97532.81;;;20.19;100.00
18795;BME280;29610;49.022;12.114;2023-04-29T13:36:47;97529.59;;;19.49;100.00
18795;BME280;29610;49.022;12.114;2023-04-29T13:39:37;97520.59;;;19.56;100.00
18795;BME280;29610;49.022;12.114;2023-04-29T13:42:26;97516.25;;;19.51;100.00
18795;BME280;29610;49.022;12.114;2023-04-29T13:45:17;97521.97;;;19.90;100.00
18795;BME280;29610;49.022;12.114;2023-04-29T13:48:06;97524.69;;;19.79;100.00
18795;BME280;29610;49.022;12.114;2023-04-29T13:51:15;97524.69;;;19.79;100.00
18795;BME280;29610;49.022;12.114;2023-04-29T13:54:07;97524.72;;;19.83;100.00
18795;BME280;29610;49.022;12.114;2023-04-29T13:57:17;97530.16;;;19.76;100.00
18795;BME280;29610;49.022;12.114;2023-04-29T14:00:10;97530.78;;;19.52;100.00
18795;BME280;29610;49.022;12.114;2023-04-29T14:03:20;97539.72;;;18.94;100.00
18795;BME280;29610;49.022;12.114;2023-04-29T14:06:09;97533.66;;;18.42;100.00
18795;BME280;29610;49.022;12.114;2023-04-29T14:08:58;97531.59;;;18.35;100.00
18795;BME280;29610;49.022;12.114;2023-04-29T14:11:50;97530.13;;;18.41;100.00
18795;BME280;29610;49.022;12.114;2023-04-29T14:14:40;97542.34;;;18.44;100.00
18795;BME280;29610;49.022;12.114;2023-04-29T14:17:29;97539.03;;;18.64;100.00
18795;BME280;29610;49.022;12.114;2023-04-29T14:20:18;97535.44;;;18.97;100.00
18795;BME280;29610;49.022;12.114;2023-04-29T14:23:08;97538.03;;;18.83;100.00
18795;BME280;29610;49.022;12.114;2023-04-29T14:25:57;97547.66;;;18.63;100.00
18795;BME280;29610;49.022;12.114;2023-04-29T14:29:05;97544.91;;;18.00;100.00
18795;BME280;29610;49.022;12.114;2023-04-29T14:31:56;97556.97;;;17.92;100.00
18795;BME280;29610;49.022;12.114;2023-04-29T14:34:45;97553.00;;;18.19;100.00
18795;BME280;29610;49.022;12.114;2023-04-29T14:37:35;97549.59;;;18.29;100.00
18795;BME280;29610;49.022;12.114;2023-04-29T14:40:24;97558.97;;;18.91;100.00
18795;BME280;29610;49.022;12.114;2023-04-29T14:43:13;97558.16;;;18.87;100.00
18795;BME280;29610;49.022;12.114;2023-04-29T14:46:03;97559.09;;;19.02;100.00
18795;BME280;29610;49.022;12.114;2023-04-29T14:48:57;97566.78;;;18.85;100.00
18795;BME280;29610;49.022;12.114;2023-04-29T14:51:47;97561.75;;;18.94;100.00